Time,TemperatureF,DewpointF,PressureIn,WindDirection,WindDirectionDegrees,WindSpeedMPH,WindSpeedGustMPH,Humidity,HourlyPrecipIn,Conditions,Clouds,dailyrainin,SolarRadiationWatts/m^2,SoftwareType,DateUTC
2013-04-05 00:02:00,47.0,25.0,-100.00,WNW,284,4.0,5.0,42,0.00,,,0.00,0.000000,,2013-04-05 05:02:00,
2013-04-05 00:12:00,47.0,25.0,-100.00,WNW,284,4.0,5.0,42,0.00,,,0.00,0.000000,,2013-04-05 05:12:00,
2013-04-05 00:42:00,47.0,25.0,-100.00,West,275,4.0,6.0,42,0.00,,,0.00,0.000000,,2013-04-05 05:42:00,
2013-04-05 00:52:00,47.0,25.0,-100.00,West,275,4.0,6.0,42,0.00,,,0.00,0.000000,,2013-04-05 05:52:00,
2013-04-05 01:02:00,47.0,25.0,-100.00,West,275,4.0,6.0,42,0.00,,,0.00,0.000000,,2013-04-05 06:02:00,
2013-04-05 01:12:00,47.0,25.0,-100.00,West,275,4.0,6.0,42,0.00,,,0.00,0.000000,,2013-04-05 06:12:00,
2013-04-05 02:42:00,46.0,25.0,-100.00,West,259,5.0,7.0,43,-99.99,,,0.00,0.000000,,2013-04-05 07:42:00,
2013-04-05 02:53:00,46.0,25.0,-100.00,West,259,5.0,7.0,43,-99.99,,,0.00,0.000000,,2013-04-05 07:53:00,
2013-04-05 03:02:00,46.0,25.0,-100.00,West,259,5.0,7.0,43,-99.99,,,0.00,0.000000,,2013-04-05 08:02:00,
2013-04-05 03:12:00,46.0,25.0,-100.00,West,259,5.0,7.0,43,-99.99,,,0.00,0.000000,,2013-04-05 08:12:00,
2013-04-05 03:43:00,45.0,24.0,-100.00,West,262,6.0,8.0,44,0.00,,,0.00,0.000000,,2013-04-05 08:43:00,
2013-04-05 03:52:00,45.0,24.0,-100.00,West,262,6.0,8.0,44,0.00,,,0.00,0.000000,,2013-04-05 08:52:00,
2013-04-05 04:02:00,45.0,24.0,-100.00,West,262,6.0,8.0,44,0.00,,,0.00,0.000000,,2013-04-05 09:02:00,
2013-04-05 04:12:00,45.0,24.0,-100.00,West,262,6.0,8.0,44,0.00,,,0.00,0.000000,,2013-04-05 09:12:00,
2013-04-05 04:13:00,45.0,25.0,-100.00,WSW,255,7.0,10.0,45,0.00,,,0.00,0.000000,,2013-04-05 09:13:00,
2013-04-05 04:43:00,45.0,25.0,-100.00,WSW,255,7.0,10.0,45,0.00,,,0.00,0.000000,,2013-04-05 09:43:00,
2013-04-05 04:53:00,45.0,25.0,-100.00,WSW,255,7.0,10.0,45,0.00,,,0.00,0.000000,,2013-04-05 09:53:00,
2013-04-05 05:03:00,45.0,25.0,-100.00,WSW,255,7.0,10.0,45,0.00,,,0.00,0.000000,,2013-04-05 10:03:00,
2013-04-05 05:33:00,44.0,25.0,-100.00,WSW,256,6.0,9.0,47,0.00,,,0.00,0.000000,,2013-04-05 10:33:00,
2013-04-05 05:43:00,44.0,25.0,-100.00,WSW,256,6.0,9.0,47,0.00,,,0.00,0.000000,,2013-04-05 10:43:00,
2013-04-05 05:53:00,44.0,25.0,-100.00,WSW,256,6.0,9.0,47,0.00,,,0.00,0.000000,,2013-04-05 10:53:00,
2013-04-05 06:02:00,44.0,25.0,-100.00,WSW,256,6.0,9.0,47,0.00,,,0.00,0.000000,,2013-04-05 11:02:00,
2013-04-05 06:12:00,44.0,25.0,-100.00,WSW,256,6.0,9.0,47,0.00,,,0.00,0.000000,,2013-04-05 11:12:00,
2013-04-05 06:33:00,42.0,25.0,-100.00,WSW,240,5.0,8.0,51,0.00,,,0.00,0.000000,,2013-04-05 11:33:00,
2013-04-05 06:42:00,42.0,25.0,-100.00,WSW,240,5.0,8.0,51,0.00,,,0.00,0.000000,,2013-04-05 11:42:00,
2013-04-05 06:52:00,42.0,25.0,-100.00,WSW,240,5.0,8.0,51,0.00,,,0.00,0.000000,,2013-04-05 11:52:00,
2013-04-05 07:02:00,42.0,25.0,-100.00,WSW,240,5.0,8.0,51,0.00,,,0.00,0.000000,,2013-04-05 12:02:00,
2013-04-05 07:12:00,42.0,25.0,-100.00,WSW,240,5.0,8.0,51,0.00,,,0.00,0.000000,,2013-04-05 12:12:00,
2013-04-05 08:42:00,42.0,27.0,-100.00,SSE,160,3.0,5.0,56,-99.99,,,0.00,127.000000,,2013-04-05 13:42:00,
2013-04-05 08:52:00,42.0,27.0,-100.00,SSE,160,3.0,5.0,56,-99.99,,,0.00,127.000000,,2013-04-05 13:52:00,
2013-04-05 09:03:00,42.0,27.0,-100.00,SSE,160,3.0,5.0,56,-99.99,,,0.00,127.000000,,2013-04-05 14:03:00,
2013-04-05 09:12:00,42.0,27.0,-100.00,SSE,160,3.0,5.0,56,-99.99,,,0.00,127.000000,,2013-04-05 14:12:00,
2013-04-05 09:43:00,49.0,30.0,-100.00,SW,226,3.0,5.0,48,0.00,,,0.00,366.000000,,2013-04-05 14:43:00,
2013-04-05 09:54:00,49.0,30.0,-100.00,SW,226,3.0,5.0,48,0.00,,,0.00,366.000000,,2013-04-05 14:54:00,
2013-04-05 10:02:00,49.0,30.0,-100.00,SW,226,3.0,5.0,48,0.00,,,0.00,366.000000,,2013-04-05 15:02:00,
2013-04-05 10:12:00,49.0,30.0,-100.00,SW,226,3.0,5.0,48,0.00,,,0.00,366.000000,,2013-04-05 15:12:00,
2013-04-05 10:13:00,56.0,33.0,-100.00,ESE,106,3.0,6.0,41,0.00,,,0.00,597.000000,,2013-04-05 15:13:00,
2013-04-05 10:34:00,56.0,33.0,-100.00,ESE,106,3.0,6.0,41,0.00,,,0.00,597.000000,,2013-04-05 15:34:00,
2013-04-05 10:43:00,56.0,33.0,-100.00,ESE,106,3.0,6.0,41,0.00,,,0.00,597.000000,,2013-04-05 15:43:00,
2013-04-05 10:54:00,56.0,33.0,-100.00,ESE,106,3.0,6.0,41,0.00,,,0.00,597.000000,,2013-04-05 15:54:00,
2013-04-05 11:02:00,56.0,33.0,-100.00,ESE,106,3.0,6.0,41,0.00,,,0.00,597.000000,,2013-04-05 16:02:00,
2013-04-05 11:13:00,62.0,33.0,-100.00,SSW,204,3.0,6.0,34,0.00,,,0.00,774.000000,,2013-04-05 16:13:00,
2013-04-05 11:33:00,62.0,33.0,-100.00,SSW,204,3.0,6.0,34,0.00,,,0.00,774.000000,,2013-04-05 16:33:00,
2013-04-05 11:43:00,62.0,33.0,-100.00,SSW,204,3.0,6.0,34,0.00,,,0.00,774.000000,,2013-04-05 16:43:00,
2013-04-05 11:53:00,62.0,33.0,-100.00,SSW,204,3.0,6.0,34,0.00,,,0.00,774.000000,,2013-04-05 16:53:00,
2013-04-05 12:03:00,62.0,33.0,-100.00,SSW,204,3.0,6.0,34,0.00,,,0.00,774.000000,,2013-04-05 17:03:00,
2013-04-05 12:33:00,65.0,32.0,-100.00,West,275,5.0,10.0,29,0.00,,,0.00,925.000000,,2013-04-05 17:33:00,
2013-04-05 12:45:00,65.0,32.0,-100.00,West,275,5.0,10.0,29,0.00,,,0.00,925.000000,,2013-04-05 17:45:00,
2013-04-05 12:52:00,65.0,32.0,-100.00,West,275,5.0,10.0,29,0.00,,,0.00,925.000000,,2013-04-05 17:52:00,
2013-04-05 13:02:00,65.0,32.0,-100.00,West,275,5.0,10.0,29,0.00,,,0.00,925.000000,,2013-04-05 18:02:00,
2013-04-05 13:12:00,65.0,32.0,-100.00,West,275,5.0,10.0,29,0.00,,,0.00,925.000000,,2013-04-05 18:12:00,
2013-04-05 13:13:00,67.0,33.0,-100.00,NW,324,6.0,11.0,28,0.00,,,0.00,976.000000,,2013-04-05 18:13:00,
2013-04-05 13:43:00,67.0,33.0,-100.00,NW,324,6.0,11.0,28,0.00,,,0.00,976.000000,,2013-04-05 18:43:00,
2013-04-05 13:53:00,67.0,33.0,-100.00,NW,324,6.0,11.0,28,0.00,,,0.00,976.000000,,2013-04-05 18:53:00,
2013-04-05 14:02:00,67.0,33.0,-100.00,NW,324,6.0,11.0,28,0.00,,,0.00,976.000000,,2013-04-05 19:02:00,
2013-04-05 14:43:00,69.0,34.0,-100.00,WSW,241,5.0,12.0,27,0.00,,,0.00,980.000000,,2013-04-05 19:43:00,
2013-04-05 14:53:00,69.0,34.0,-100.00,WSW,241,5.0,12.0,27,0.00,,,0.00,980.000000,,2013-04-05 19:53:00,
2013-04-05 15:02:00,69.0,34.0,-100.00,WSW,241,5.0,12.0,27,0.00,,,0.00,980.000000,,2013-04-05 20:02:00,
2013-04-05 15:11:00,69.0,34.0,-100.00,WSW,241,5.0,12.0,27,0.00,,,0.00,980.000000,,2013-04-05 20:11:00,
2013-04-05 15:33:00,70.0,34.0,-100.00,West,271,6.0,13.0,27,0.00,,,0.00,894.000000,,2013-04-05 20:33:00,
2013-04-05 15:43:00,70.0,34.0,-100.00,West,271,6.0,13.0,27,0.00,,,0.00,894.000000,,2013-04-05 20:43:00,
2013-04-05 15:53:00,70.0,34.0,-100.00,West,271,6.0,13.0,27,0.00,,,0.00,894.000000,,2013-04-05 20:53:00,
2013-04-05 16:02:00,70.0,34.0,-100.00,West,271,6.0,13.0,27,0.00,,,0.00,894.000000,,2013-04-05 21:02:00,
2013-04-05 16:12:00,70.0,34.0,-100.00,West,271,6.0,13.0,27,0.00,,,0.00,894.000000,,2013-04-05 21:12:00,
2013-04-05 16:13:00,70.0,34.0,-100.00,SSW,203,7.0,16.0,26,0.00,,,0.00,713.000000,,2013-04-05 21:13:00,
2013-04-05 16:44:00,70.0,34.0,-100.00,SSW,203,7.0,16.0,26,0.00,,,0.00,713.000000,,2013-04-05 21:44:00,
2013-04-05 16:55:00,70.0,34.0,-100.00,SSW,203,7.0,16.0,26,0.00,,,0.00,713.000000,,2013-04-05 21:55:00,
2013-04-05 17:03:00,70.0,34.0,-100.00,SSW,203,7.0,16.0,26,0.00,,,0.00,713.000000,,2013-04-05 22:03:00,
2013-04-05 17:44:00,71.0,35.0,-100.00,SW,215,6.0,15.0,27,0.00,,,0.00,589.000000,,2013-04-05 22:44:00,
2013-04-05 17:53:00,71.0,35.0,-100.00,SW,215,6.0,15.0,27,0.00,,,0.00,589.000000,,2013-04-05 22:53:00,
2013-04-05 18:02:00,71.0,35.0,-100.00,SW,215,6.0,15.0,27,0.00,,,0.00,589.000000,,2013-04-05 23:02:00,
2013-04-05 18:12:00,71.0,35.0,-100.00,SW,215,6.0,15.0,27,0.00,,,0.00,589.000000,,2013-04-05 23:12:00,
2013-04-05 18:13:00,70.0,35.0,-100.00,SSW,208,7.0,15.0,28,0.00,,,0.00,352.000000,,2013-04-05 23:13:00,
2013-04-05 18:43:00,70.0,35.0,-100.00,SSW,208,7.0,15.0,28,0.00,,,0.00,352.000000,,2013-04-05 23:43:00,
2013-04-05 18:53:00,70.0,35.0,-100.00,SSW,208,7.0,15.0,28,0.00,,,0.00,352.000000,,2013-04-05 23:53:00,
2013-04-05 19:02:00,70.0,35.0,-100.00,SSW,208,7.0,15.0,28,0.00,,,0.00,352.000000,,2013-04-06 00:02:00,
2013-04-05 20:33:00,63.0,34.0,-100.00,South,183,3.0,7.0,34,-99.99,,,0.00,5.000000,,2013-04-06 01:33:00,
2013-04-05 20:43:00,63.0,34.0,-100.00,South,183,3.0,7.0,34,-99.99,,,0.00,5.000000,,2013-04-06 01:43:00,
2013-04-05 20:53:00,63.0,34.0,-100.00,South,183,3.0,7.0,34,-99.99,,,0.00,5.000000,,2013-04-06 01:53:00,
2013-04-05 21:02:00,63.0,34.0,-100.00,South,183,3.0,7.0,34,-99.99,,,0.00,5.000000,,2013-04-06 02:02:00,
2013-04-05 21:12:00,63.0,34.0,-100.00,South,183,3.0,7.0,34,-99.99,,,0.00,5.000000,,2013-04-06 02:12:00,
2013-04-05 21:43:00,61.0,35.0,-100.00,SSE,159,3.0,5.0,38,0.00,,,0.00,0.000000,,2013-04-06 02:43:00,
2013-04-05 21:52:00,61.0,35.0,-100.00,SSE,159,3.0,5.0,38,0.00,,,0.00,0.000000,,2013-04-06 02:52:00,
2013-04-05 22:02:00,61.0,35.0,-100.00,SSE,159,3.0,5.0,38,0.00,,,0.00,0.000000,,2013-04-06 03:02:00,
2013-04-05 22:12:00,61.0,35.0,-100.00,SSE,159,3.0,5.0,38,0.00,,,0.00,0.000000,,2013-04-06 03:12:00,
2013-04-05 22:13:00,60.0,34.0,-100.00,SSE,155,4.0,7.0,38,0.00,,,0.00,0.000000,,2013-04-06 03:13:00,
2013-04-05 22:43:00,60.0,34.0,-100.00,SSE,155,4.0,7.0,38,0.00,,,0.00,0.000000,,2013-04-06 03:43:00,
2013-04-05 22:54:00,60.0,34.0,-100.00,SSE,155,4.0,7.0,38,0.00,,,0.00,0.000000,,2013-04-06 03:54:00,
2013-04-05 23:03:00,60.0,34.0,-100.00,SSE,155,4.0,7.0,38,0.00,,,0.00,0.000000,,2013-04-06 04:03:00,
2013-04-05 23:13:00,58.0,33.0,-100.00,South,176,5.0,11.0,39,0.00,,,0.00,0.000000,,2013-04-06 04:13:00,
2013-04-05 23:43:00,58.0,33.0,-100.00,South,176,5.0,11.0,39,0.00,,,0.00,0.000000,,2013-04-06 04:43:00,
2013-04-05 23:53:00,58.0,33.0,-100.00,South,176,5.0,11.0,39,0.00,,,0.00,0.000000,,2013-04-06 04:53:00,